Time;durP1;ratioP1;P1;durP2;ratioP2;P2;SDS_P1;SDS_P2;PMS_P1;PMS_P2;Temp;Humidity;BMP_temperature;BMP_pressure;BME280_temperature;BME280_humidity;BME280_pressure;Samples;Min_cycle;Max_cycle;Signal;HPM_P1;HPM_P2
2020/12/11 00:00:46;;;;;;;65.50;29.83;;;2.70;96.10;;;;;;5085970;28;20184;-83
2020/12/11 00:03:11;;;;;;;56.53;27.73;;;2.70;96.00;;;;;;5087150;28;20184;-83
2020/12/11 00:05:43;;;;;;;42.33;23.50;;;2.70;95.70;;;;;;5088020;28;20286;-83
2020/12/11 00:08:09;;;;;;;34.80;21.33;;;2.80;95.90;;;;;;5086633;28;20191;-83
2020/12/11 00:10:38;;;;;;;32.53;19.40;;;2.70;95.90;;;;;;5088052;28;20971;-83
2020/12/11 00:13:06;;;;;;;27.83;18.05;;;2.70;96.30;;;;;;5086114;28;20475;-83
2020/12/11 00:15:35;;;;;;;33.45;20.83;;;2.60;96.40;;;;;;5085402;28;20719;-82
2020/12/11 00:18:00;;;;;;;36.05;21.00;;;2.60;96.40;;;;;;5086578;28;20184;-83
2020/12/11 00:20:26;;;;;;;40.13;23.00;;;2.60;96.40;;;;;;5086419;28;20595;-83
2020/12/11 00:22:54;;;;;;;41.07;23.67;;;2.60;96.20;;;;;;5087703;28;20565;-82
2020/12/11 00:25:21;;;;;;;34.45;21.33;;;2.60;96.20;;;;;;5086570;28;20663;-83
2020/12/11 00:27:49;;;;;;;30.67;19.55;;;2.60;96.40;;;;;;5086981;28;20690;-83
2020/12/11 00:30:15;;;;;;;29.67;19.08;;;2.60;96.40;;;;;;5086306;28;20187;-82
2020/12/11 00:32:53;;;;;;;31.45;20.83;;;2.60;96.50;;;;;;5085221;28;20208;-83
2020/12/11 00:35:19;;;;;;;36.00;21.88;;;2.60;96.60;;;;;;5090297;28;20933;-83
2020/12/11 00:37:44;;;;;;;29.80;18.90;;;2.60;96.40;;;;;;5092131;28;20184;-83
2020/12/11 00:40:10;;;;;;;30.57;19.77;;;2.60;96.50;;;;;;5092091;28;20640;-83
2020/12/11 00:42:38;;;;;;;30.67;19.93;;;2.70;96.10;;;;;;5090152;28;20183;-82
2020/12/11 00:45:07;;;;;;;27.20;18.45;;;2.70;96.10;;;;;;5097980;28;20176;-82
2020/12/11 00:47:38;;;;;;;26.73;16.88;;;2.60;95.90;;;;;;5110857;28;20184;-82
2020/12/11 00:50:06;;;;;;;28.48;17.92;;;2.70;95.80;;;;;;5109699;28;20175;-83
2020/12/11 00:52:35;;;;;;;26.15;16.83;;;2.70;95.40;;;;;;5110573;28;20218;-83
2020/12/11 00:55:00;;;;;;;26.70;17.10;;;2.60;96.10;;;;;;5110421;28;20184;-83
2020/12/11 00:57:29;;;;;;;30.03;18.57;;;2.60;96.00;;;;;;5110334;28;20199;-83
2020/12/11 00:59:54;;;;;;;29.10;16.83;;;2.60;96.00;;;;;;5112183;28;20188;-83
2020/12/11 01:02:20;;;;;;;31.60;18.53;;;2.60;96.20;;;;;;5110094;28;20205;-83
2020/12/11 01:04:48;;;;;;;25.90;17.67;;;2.50;96.50;;;;;;5109141;28;20180;-83
2020/12/11 01:07:17;;;;;;;27.88;17.77;;;2.60;96.10;;;;;;5110133;28;20179;-83
2020/12/11 01:09:42;;;;;;;26.63;16.88;;;2.50;96.00;;;;;;5111954;28;20176;-82
2020/12/11 01:12:17;;;;;;;32.63;18.93;;;2.50;96.30;;;;;;5109535;28;20668;-83
2020/12/11 01:14:51;;;;;;;27.23;18.90;;;2.60;96.10;;;;;;5110285;28;20671;-82
2020/12/11 01:17:20;;;;;;;32.47;20.98;;;2.50;96.10;;;;;;5110005;28;20236;-83
2020/12/11 01:19:48;;;;;;;36.72;20.85;;;2.50;96.10;;;;;;5109683;28;20179;-82
2020/12/11 01:22:14;;;;;;;36.65;22.70;;;2.40;96.20;;;;;;5109184;28;20184;-83
2020/12/11 01:24:48;;;;;;;33.87;22.70;;;2.50;96.20;;;;;;5109798;28;20191;-82
2020/12/11 01:27:29;;;;;;;32.17;19.20;;;2.50;96.40;;;;;;5110203;28;20183;-84
2020/12/11 01:29:54;;;;;;;33.38;20.00;;;2.60;96.30;;;;;;5109909;28;20180;-83
2020/12/11 01:32:26;;;;;;;32.80;20.10;;;2.50;96.40;;;;;;5109020;28;20269;-83
2020/12/11 01:34:52;;;;;;;35.63;21.20;;;2.50;96.30;;;;;;5109684;28;20221;-83
2020/12/11 01:37:17;;;;;;;32.27;19.80;;;2.50;96.40;;;;;;5109133;28;20628;-83
2020/12/11 01:39:43;;;;;;;30.60;19.07;;;2.50;96.20;;;;;;5111251;28;20268;-83
2020/12/11 01:42:10;;;;;;;33.60;19.90;;;2.60;96.30;;;;;;5109362;28;20532;-83
2020/12/11 01:44:49;;;;;;;29.60;19.50;;;2.60;96.20;;;;;;5109915;28;20211;-83
2020/12/11 01:47:22;;;;;;;31.25;18.77;;;2.60;96.30;;;;;;5109827;28;20210;-82
2020/12/11 01:49:53;;;;;;;31.17;18.90;;;2.60;96.50;;;;;;5109721;28;20601;-83
2020/12/11 01:52:21;;;;;;;33.35;19.38;;;2.60;96.40;;;;;;5109014;28;20199;-83
2020/12/11 01:54:51;;;;;;;35.38;21.00;;;2.50;96.10;;;;;;5109705;28;20255;-83
2020/12/11 01:57:31;;;;;;;30.95;20.08;;;2.60;96.20;;;;;;5109836;28;20175;-82
2020/12/11 02:00:02;;;;;;;30.73;20.25;;;2.60;96.20;;;;;;5109582;28;20180;-82
2020/12/11 02:02:29;;;;;;;32.25;20.25;;;2.60;96.40;;;;;;5109224;28;20187;-83
2020/12/11 02:04:54;;;;;;;31.60;20.73;;;2.60;96.60;;;;;;5109611;28;20257;-83
2020/12/11 02:07:20;;;;;;;33.60;21.90;;;2.70;96.30;;;;;;5108616;28;20662;-83
2020/12/11 02:09:46;;;;;;;33.37;21.07;;;2.70;96.40;;;;;;5108652;28;20313;-83
2020/12/11 02:12:17;;;;;;;38.27;23.13;;;2.70;96.30;;;;;;5109195;28;20468;-82
2020/12/11 02:14:47;;;;;;;32.92;20.90;;;2.70;96.00;;;;;;5109214;28;20196;-83
2020/12/11 02:17:15;;;;;;;33.10;21.45;;;2.60;96.20;;;;;;5108672;28;20188;-83
2020/12/11 02:19:47;;;;;;;36.33;22.60;;;2.60;96.70;;;;;;5109862;28;20172;-83
2020/12/11 02:22:15;;;;;;;38.78;23.67;;;2.70;96.80;;;;;;5108882;28;20631;-83
2020/12/11 02:24:44;;;;;;;34.13;21.35;;;2.70;96.80;;;;;;5108927;28;20184;-83
2020/12/11 02:27:12;;;;;;;37.53;22.40;;;2.70;96.60;;;;;;5108340;28;20244;-83
2020/12/11 02:29:41;;;;;;;33.90;20.88;;;2.70;96.30;;;;;;5108929;28;20640;-83
2020/12/11 02:32:09;;;;;;;37.28;22.95;;;2.70;96.30;;;;;;5108980;28;21285;-83
2020/12/11 02:34:35;;;;;;;34.65;22.05;;;2.60;96.50;;;;;;5108366;28;20565;-83
2020/12/11 02:37:02;;;;;;;39.40;23.07;;;2.60;96.90;;;;;;5110153;28;20172;-83
2020/12/11 02:39:28;;;;;;;37.95;21.95;;;2.60;96.90;;;;;;5109993;28;20232;-83
2020/12/11 02:41:56;;;;;;;39.47;22.00;;;2.60;96.70;;;;;;5108070;28;20175;-83
2020/12/11 02:44:22;;;;;;;37.08;22.15;;;2.60;96.40;;;;;;5107460;28;20473;-83
2020/12/11 02:47:00;;;;;;;34.23;20.93;;;2.60;96.40;;;;;;5109733;28;20202;-83
2020/12/11 02:49:26;;;;;;;38.70;22.10;;;2.60;96.50;;;;;;5108678;28;20786;-83
2020/12/11 02:51:51;;;;;;;40.93;24.03;;;2.60;96.70;;;;;;5090963;28;20180;-83
2020/12/11 02:54:17;;;;;;;44.67;24.93;;;2.60;96.50;;;;;;5087869;28;20231;-83
2020/12/11 02:56:43;;;;;;;51.67;26.87;;;2.60;96.60;;;;;;5086654;28;20179;-83
2020/12/11 02:59:08;;;;;;;45.27;25.67;;;2.70;96.50;;;;;;5087132;28;20176;-83
2020/12/11 03:01:34;;;;;;;42.47;26.23;;;2.80;96.50;;;;;;5087782;28;20172;-83
2020/12/11 03:04:02;;;;;;;43.80;25.37;;;2.80;96.70;;;;;;5087935;28;20199;-83
2020/12/11 03:06:31;;;;;;;39.83;23.92;;;2.80;96.00;;;;;;5087515;28;20191;-83
2020/12/11 03:09:06;;;;;;;36.97;22.73;;;2.70;96.30;;;;;;5087518;28;20195;-83
2020/12/11 03:11:41;;;;;;;35.97;23.25;;;2.70;96.30;;;;;;5087335;28;20211;-83
2020/12/11 03:14:09;;;;;;;33.80;21.48;;;2.70;95.90;;;;;;5086956;28;20322;-83
2020/12/11 03:16:35;;;;;;;32.15;19.52;;;2.70;96.10;;;;;;5087139;28;20694;-84
2020/12/11 03:19:09;;;;;;;32.23;21.00;;;2.60;96.00;;;;;;5089178;28;20184;-83
2020/12/11 03:21:38;;;;;;;36.67;21.02;;;2.70;96.10;;;;;;5087659;28;20176;-83
2020/12/11 03:24:03;;;;;;;34.20;19.20;;;2.70;96.40;;;;;;5086953;28;20192;-83
2020/12/11 03:26:38;;;;;;;36.27;21.63;;;2.60;96.50;;;;;;5087170;28;20660;-83
2020/12/11 03:29:06;;;;;;;34.05;22.33;;;2.60;96.70;;;;;;5087788;28;20632;-83
2020/12/11 03:31:35;;;;;;;30.70;18.98;;;2.60;96.40;;;;;;5086242;28;20224;-83
2020/12/11 03:34:03;;;;;;;33.30;20.15;;;2.60;96.00;;;;;;5086572;28;20208;-83
2020/12/11 03:36:28;;;;;;;34.58;21.50;;;2.60;96.40;;;;;;5088798;28;20177;-84
2020/12/11 03:38:54;;;;;;;33.13;19.20;;;2.70;96.10;;;;;;5087489;28;20194;-83
2020/12/11 03:41:20;;;;;;;32.83;18.90;;;2.60;96.30;;;;;;5086996;28;20192;-83
2020/12/11 03:43:45;;;;;;;30.27;18.43;;;2.60;96.10;;;;;;5089271;28;20187;-83
2020/12/11 03:46:21;;;;;;;31.63;19.00;;;2.60;96.00;;;;;;5103364;28;20195;-83
2020/12/11 03:48:51;;;;;;;30.73;18.48;;;2.60;96.10;;;;;;5107354;28;20320;-83
2020/12/11 03:51:24;;;;;;;28.77;19.20;;;2.60;95.80;;;;;;5094205;28;20177;-83
2020/12/11 03:53:55;;;;;;;33.05;19.20;;;2.60;96.00;;;;;;5086761;28;20607;-83
2020/12/11 03:56:26;;;;;;;29.05;17.90;;;2.60;95.70;;;;;;5086234;28;20226;-83
2020/12/11 03:58:55;;;;;;;28.25;18.52;;;2.60;95.90;;;;;;5087057;28;20181;-83
2020/12/11 04:01:20;;;;;;;31.45;18.35;;;2.60;95.90;;;;;;5088220;28;20180;-83
2020/12/11 04:03:49;;;;;;;31.17;19.53;;;2.50;96.00;;;;;;5092586;28;20229;-83
2020/12/11 04:06:19;;;;;;;29.67;17.70;;;2.60;96.00;;;;;;5092283;28;20380;-83
2020/12/11 04:08:44;;;;;;;26.90;17.00;;;2.50;96.10;;;;;;5090584;28;20271;-83
2020/12/11 04:11:13;;;;;;;29.70;18.00;;;2.50;96.00;;;;;;5091181;28;20250;-83
2020/12/11 04:13:39;;;;;;;26.48;18.02;;;2.50;96.20;;;;;;5090670;28;20228;-83
2020/12/11 04:16:05;;;;;;;31.25;19.95;;;2.60;96.00;;;;;;5092251;28;20188;-83
2020/12/11 04:18:36;;;;;;;51.30;31.65;;;2.70;95.70;;;;;;5090696;28;20195;-83
2020/12/11 04:21:09;;;;;;;68.88;38.30;;;2.70;95.60;;;;;;5091480;28;20176;-83
2020/12/11 04:23:34;;;;;;;61.05;36.70;;;2.70;95.70;;;;;;5090954;28;20177;-83
2020/12/11 04:26:00;;;;;;;71.73;44.43;;;2.60;95.60;;;;;;5091041;28;20190;-83
2020/12/11 04:28:31;;;;;;;59.43;37.00;;;2.60;95.90;;;;;;5091202;28;20187;-83
2020/12/11 04:30:57;;;;;;;56.17;35.33;;;2.60;96.60;;;;;;5090791;28;20191;-83
2020/12/11 04:33:22;;;;;;;35.73;22.43;;;2.60;95.70;;;;;;5090512;28;20208;-83
2020/12/11 04:35:51;;;;;;;34.20;20.10;;;2.60;95.50;;;;;;5091003;28;20188;-83
2020/12/11 04:38:16;;;;;;;28.60;18.77;;;2.60;95.80;;;;;;5090302;28;20526;-83
2020/12/11 04:40:43;;;;;;;30.77;18.73;;;2.60;95.70;;;;;;5090771;28;20180;-83
2020/12/11 04:43:13;;;;;;;30.05;18.67;;;2.60;95.70;;;;;;5092210;28;20458;-83
2020/12/11 04:45:40;;;;;;;29.00;17.70;;;2.60;96.50;;;;;;5102542;28;20724;-83
2020/12/11 04:48:12;;;;;;;42.17;23.27;;;2.60;96.00;;;;;;5111360;28;20175;-83
2020/12/11 04:50:37;;;;;;;49.08;26.30;;;2.60;95.80;;;;;;5103286;28;20188;-83
2020/12/11 04:53:04;;;;;;;35.57;19.60;;;2.60;96.30;;;;;;5090492;28;20205;-83
2020/12/11 04:55:35;;;;;;;35.55;20.30;;;2.50;96.00;;;;;;5090417;28;20283;-83
2020/12/11 04:58:09;;;;;;;39.40;23.40;;;2.50;96.10;;;;;;5092023;28;20165;-83
2020/12/11 05:00:37;;;;;;;36.10;21.27;;;2.60;96.60;;;;;;5091688;28;20231;-83
2020/12/11 05:03:03;;;;;;;52.20;28.30;;;2.60;96.50;;;;;;5090930;28;20180;-83
2020/12/11 05:05:31;;;;;;;47.90;27.00;;;2.60;96.30;;;;;;5091710;28;20237;-83
2020/12/11 05:07:57;;;;;;;51.63;28.15;;;2.60;96.40;;;;;;5090549;28;20692;-84
2020/12/11 05:10:22;;;;;;;50.47;26.67;;;2.70;96.30;;;;;;5089874;28;20326;-83
2020/12/11 05:12:48;;;;;;;35.90;21.13;;;2.70;96.40;;;;;;5091578;28;20231;-83
2020/12/11 05:15:18;;;;;;;32.90;18.10;;;2.70;96.40;;;;;;5090363;28;20633;-83
2020/12/11 05:17:44;;;;;;;33.80;19.45;;;2.60;96.30;;;;;;5090573;28;20628;-83
2020/12/11 05:20:11;;;;;;;34.20;17.90;;;2.60;96.50;;;;;;5092001;28;20260;-83
2020/12/11 05:22:44;;;;;;;41.78;24.17;;;2.50;96.20;;;;;;5093575;28;20177;-83
2020/12/11 05:25:19;;;;;;;36.67;21.15;;;2.50;96.40;;;;;;5093749;28;20629;-83
2020/12/11 05:27:46;;;;;;;33.75;20.05;;;2.50;96.10;;;;;;5093252;28;20515;-83
2020/12/11 05:30:18;;;;;;;29.27;17.77;;;2.50;96.00;;;;;;5094207;28;20552;-83
2020/12/11 05:32:57;;;;;;;33.65;19.35;;;2.50;95.70;;;;;;5093860;28;20218;-83
2020/12/11 05:35:28;;;;;;;68.90;36.15;;;2.50;95.70;;;;;;5094809;28;20179;-83
2020/12/11 05:38:07;;;;;;;68.53;35.95;;;2.50;95.80;;;;;;5095698;28;20173;-83
2020/12/11 05:40:44;;;;;;;56.78;30.40;;;2.50;96.10;;;;;;5094717;28;20184;-83
2020/12/11 05:43:18;;;;;;;33.00;20.10;;;2.50;95.90;;;;;;5093793;28;20192;-84
2020/12/11 05:46:06;;;;;;;35.03;20.23;;;2.40;95.90;;;;;;5107776;28;20188;-83
2020/12/11 05:48:42;;;;;;;35.08;19.75;;;2.50;96.20;;;;;;5113849;28;20640;-83
2020/12/11 05:51:18;;;;;;;35.15;19.35;;;2.50;96.50;;;;;;5112374;28;21043;-83
2020/12/11 05:53:47;;;;;;;33.97;21.00;;;2.50;96.20;;;;;;5113823;28;20199;-84
2020/12/11 05:56:13;;;;;;;31.67;19.55;;;2.50;96.40;;;;;;5113092;28;20180;-83
2020/12/11 05:58:42;;;;;;;35.50;20.35;;;2.60;96.10;;;;;;5112936;28;20192;-83
2020/12/11 06:01:16;;;;;;;38.35;21.83;;;2.60;96.50;;;;;;5114358;28;20180;-84
2020/12/11 06:03:42;;;;;;;43.80;23.90;;;2.50;96.10;;;;;;5113349;28;20649;-83
2020/12/11 06:06:08;;;;;;;35.60;21.93;;;2.40;96.50;;;;;;5114850;28;20188;-83
2020/12/11 06:08:34;;;;;;;39.72;21.65;;;2.50;96.60;;;;;;5113178;28;20187;-83
2020/12/11 06:11:13;;;;;;;48.55;26.02;;;2.50;96.60;;;;;;5114619;28;20973;-83
2020/12/11 06:13:47;;;;;;;44.05;24.83;;;2.50;96.30;;;;;;5113443;28;20228;-83
2020/12/11 06:16:19;;;;;;;37.20;21.63;;;2.50;96.90;;;;;;5113395;28;20175;-83
2020/12/11 06:18:45;;;;;;;39.08;21.55;;;2.60;96.60;;;;;;5113463;28;20186;-83
2020/12/11 06:21:18;;;;;;;39.95;23.05;;;2.50;96.40;;;;;;5113138;28;20180;-83
2020/12/11 06:23:50;;;;;;;39.95;23.25;;;2.50;96.30;;;;;;5113159;28;20282;-83
2020/12/11 06:26:15;;;;;;;40.13;23.30;;;2.50;96.40;;;;;;5113103;28;20190;-83
2020/12/11 06:28:48;;;;;;;37.93;23.80;;;2.60;97.10;;;;;;5113253;28;20183;-83
2020/12/11 06:31:24;;;;;;;37.75;23.15;;;2.60;96.30;;;;;;5113765;28;20496;-85
2020/12/11 06:33:57;;;;;;;42.97;24.67;;;2.50;96.50;;;;;;5113204;28;20919;-85
2020/12/11 06:36:42;;;;;;;41.08;24.13;;;2.50;96.30;;;;;;5112686;28;20228;-85
2020/12/11 06:39:10;;;;;;;36.97;20.95;;;2.40;96.90;;;;;;5113169;28;20179;-85
2020/12/11 06:41:39;;;;;;;36.80;21.40;;;2.50;96.60;;;;;;5114376;28;20183;-85
2020/12/11 06:44:10;;;;;;;38.00;21.23;;;2.50;96.60;;;;;;5113461;28;20223;-85
2020/12/11 06:46:36;;;;;;;37.33;21.20;;;2.50;96.90;;;;;;5092701;28;20245;-85
2020/12/11 06:49:13;;;;;;;34.50;20.63;;;2.50;96.40;;;;;;5092608;28;20283;-85
2020/12/11 06:51:48;;;;;;;35.20;21.42;;;2.50;96.40;;;;;;5107446;28;20411;-85
2020/12/11 06:54:36;;;;;;;38.00;21.25;;;2.50;96.00;;;;;;5112876;28;20202;-83
2020/12/11 06:57:02;;;;;;;33.95;20.45;;;2.50;96.00;;;;;;5105680;28;20184;-84
2020/12/11 06:59:36;;;;;;;34.20;20.00;;;2.50;96.00;;;;;;5112419;28;20190;-83
2020/12/11 07:02:15;;;;;;;36.63;20.05;;;2.50;96.30;;;;;;5112309;28;20208;-83
2020/12/11 07:04:48;;;;;;;35.47;20.90;;;2.60;96.50;;;;;;5111896;28;20187;-84
2020/12/11 07:07:14;;;;;;;37.90;21.75;;;2.70;96.10;;;;;;5103106;28;20201;-84
2020/12/11 07:09:47;;;;;;;32.50;18.00;;;2.80;96.40;;;;;;5096453;28;20209;-86
2020/12/11 07:12:16;;;;;;;29.30;18.65;;;2.70;95.50;;;;;;5102497;28;20232;-84
2020/12/11 07:14:46;;;;;;;34.47;19.35;;;2.70;95.70;;;;;;5111904;28;20862;-84
2020/12/11 07:17:37;;;;;;;33.67;20.20;;;2.70;95.70;;;;;;5113574;28;20608;-84
2020/12/11 07:20:06;;;;;;;35.15;20.92;;;2.60;95.10;;;;;;5112152;28;20171;-84
2020/12/11 07:22:32;;;;;;;34.70;19.65;;;2.50;95.70;;;;;;5105437;28;20320;-83
2020/12/11 07:25:01;;;;;;;36.40;21.10;;;2.60;95.90;;;;;;5110858;28;20583;-84
2020/12/11 07:27:28;;;;;;;35.35;20.63;;;2.70;95.30;;;;;;5111825;28;20180;-84
2020/12/11 07:29:57;;;;;;;32.85;19.27;;;2.70;95.30;;;;;;5112285;28;20184;-84
2020/12/11 07:32:23;;;;;;;29.70;18.05;;;2.70;95.00;;;;;;5111479;28;20179;-84
2020/12/11 07:34:49;;;;;;;38.00;22.25;;;2.70;95.20;;;;;;5106207;28;20239;-84
2020/12/11 07:37:15;;;;;;;29.67;17.15;;;2.70;95.20;;;;;;5106832;28;20203;-84
2020/12/11 07:39:41;;;;;;;30.83;20.17;;;2.70;95.20;;;;;;5105436;28;20623;-84
2020/12/11 07:42:09;;;;;;;29.00;17.97;;;2.70;95.30;;;;;;5110753;28;20184;-84
2020/12/11 07:44:40;;;;;;;35.38;21.25;;;2.70;94.80;;;;;;5110793;28;20202;-84
2020/12/11 07:47:12;;;;;;;31.92;19.80;;;2.60;95.00;;;;;;5111126;28;20183;-84
2020/12/11 07:49:40;;;;;;;27.60;18.80;;;2.70;95.30;;;;;;5111145;28;20190;-84
2020/12/11 07:52:08;;;;;;;27.38;16.40;;;2.70;95.10;;;;;;5110535;28;20581;-83
2020/12/11 07:54:38;;;;;;;26.55;16.95;;;2.50;94.90;;;;;;5105517;28;20220;-84
2020/12/11 07:57:23;;;;;;;25.27;16.25;;;2.60;95.60;;;;;;5109122;28;20515;-84
2020/12/11 07:59:57;;;;;;;27.75;17.55;;;2.60;94.60;;;;;;5108254;28;20520;-84
2020/12/11 08:02:24;;;;;;;30.92;18.05;;;2.70;94.90;;;;;;5105470;28;20557;-84
2020/12/11 08:04:53;;;;;;;27.00;16.80;;;2.80;94.50;;;;;;5093472;28;20260;-84
2020/12/11 08:07:29;;;;;;;24.75;16.50;;;2.70;94.30;;;;;;5103936;28;20639;-84
2020/12/11 08:10:12;;;;;;;31.17;19.23;;;2.80;94.80;;;;;;5104935;28;20194;-84
2020/12/11 08:12:45;;;;;;;25.88;17.02;;;2.70;94.40;;;;;;5106008;28;20236;-84
2020/12/11 08:15:12;;;;;;;26.27;17.88;;;2.70;94.30;;;;;;5110715;28;20184;-84
2020/12/11 08:17:42;;;;;;;27.23;16.33;;;2.80;94.60;;;;;;5106142;28;20278;-83
2020/12/11 08:20:13;;;;;;;18.42;12.63;;;2.80;94.30;;;;;;5105094;28;20200;-84
2020/12/11 08:22:42;;;;;;;20.30;14.05;;;2.60;93.60;;;;;;5105961;28;20183;-84
2020/12/11 08:25:34;;;;;;;19.75;13.00;;;2.70;94.20;;;;;;5110477;28;20885;-84
2020/12/11 08:28:05;;;;;;;34.58;19.33;;;2.70;93.80;;;;;;5093975;28;20571;-84
2020/12/11 08:30:34;;;;;;;22.85;14.68;;;2.80;94.40;;;;;;5109935;28;20188;-84
2020/12/11 08:33:09;;;;;;;23.20;16.23;;;2.70;94.40;;;;;;5109633;28;20916;-84
2020/12/11 08:35:38;;;;;;;19.48;13.35;;;2.80;94.60;;;;;;5103116;28;20179;-84
2020/12/11 08:38:16;;;;;;;22.58;14.73;;;2.80;93.70;;;;;;5109668;28;20683;-84
2020/12/11 08:40:48;;;;;;;23.50;15.32;;;2.70;94.10;;;;;;5095359;28;20187;-84
2020/12/11 08:43:36;;;;;;;38.38;20.80;;;2.80;94.40;;;;;;5109558;28;20184;-84
2020/12/11 08:48:46;;;;;;;26.40;16.65;;;2.90;93.90;;;;;;5104495;28;20189;-83
2020/12/11 08:51:13;;;;;;;29.45;19.08;;;2.90;94.50;;;;;;5099552;28;20183;-83
2020/12/11 08:53:49;;;;;;;25.55;16.05;;;2.90;94.20;;;;;;5107622;28;20210;-83
2020/12/11 08:56:15;;;;;;;23.92;16.27;;;3.00;93.70;;;;;;5108304;28;20183;-84
2020/12/11 08:58:46;;;;;;;27.97;17.87;;;3.00;93.00;;;;;;5108487;28;20195;-83
2020/12/11 09:01:15;;;;;;;25.05;16.88;;;3.00;92.90;;;;;;5110915;28;20270;-83
2020/12/11 09:03:43;;;;;;;24.55;14.88;;;3.00;92.90;;;;;;5110542;28;20191;-83
2020/12/11 09:06:09;;;;;;;27.27;16.20;;;2.90;92.70;;;;;;5109710;28;20195;-83
2020/12/11 09:08:34;;;;;;;31.20;20.13;;;3.00;93.10;;;;;;5109476;28;20666;-84
2020/12/11 09:11:00;;;;;;;31.50;21.00;;;3.00;93.60;;;;;;5109503;28;20183;-84
2020/12/11 09:13:28;;;;;;;29.23;19.23;;;3.10;93.70;;;;;;5109563;28;20227;-83
2020/12/11 09:15:54;;;;;;;34.00;21.25;;;3.00;93.60;;;;;;5109356;28;20183;-83
2020/12/11 09:18:19;;;;;;;38.50;24.90;;;2.90;93.50;;;;;;5113102;27;20212;-84
2020/12/11 09:20:45;;;;;;;30.80;19.70;;;2.90;94.20;;;;;;5095055;28;20253;-83
2020/12/11 09:23:11;;;;;;;31.20;20.57;;;2.80;93.80;;;;;;5109422;28;20191;-83
2020/12/11 09:25:36;;;;;;;27.60;18.87;;;2.80;94.40;;;;;;5109716;28;20218;-83
2020/12/11 09:28:09;;;;;;;35.87;22.50;;;2.90;94.10;;;;;;5106655;28;20589;-84
2020/12/11 09:30:36;;;;;;;40.67;25.25;;;3.00;94.20;;;;;;5098602;28;20687;-83
2020/12/11 09:35:28;;;;;;;43.83;25.53;;;3.10;93.70;;;;;;5097415;28;20589;-84
2020/12/11 09:37:54;;;;;;;33.87;23.70;;;3.00;93.90;;;;;;5103090;28;20267;-84
2020/12/11 09:40:49;;;;;;;35.60;21.73;;;3.00;93.40;;;;;;5104195;28;20266;-83
2020/12/11 09:53:38;;;;;;;36.13;22.45;;;2.80;94.60;;;;;;5107611;28;20202;-84
2020/12/11 09:56:02;;;;;;;34.25;21.27;;;2.90;94.40;;;;;;5099689;28;20592;-84
2020/12/11 09:58:28;;;;;;;40.67;25.67;;;2.80;93.90;;;;;;5103819;28;20188;-84
2020/12/11 10:00:54;;;;;;;33.53;20.70;;;2.60;94.70;;;;;;5103253;28;20184;-84
2020/12/11 10:03:23;;;;;;;41.10;25.20;;;2.60;94.60;;;;;;5108439;28;20274;-83
2020/12/11 10:05:48;;;;;;;34.08;20.73;;;2.70;94.80;;;;;;5103478;28;20186;-84
2020/12/11 10:08:17;;;;;;;42.80;25.20;;;2.70;94.60;;;;;;5108905;28;20270;-84
2020/12/11 10:10:45;;;;;;;38.58;24.08;;;2.60;94.70;;;;;;5108038;28;20211;-83
2020/12/11 10:13:11;;;;;;;39.35;23.00;;;2.70;95.30;;;;;;5105326;28;20284;-83
2020/12/11 10:15:39;;;;;;;44.47;24.40;;;2.70;94.80;;;;;;5108134;28;20587;-84
2020/12/11 10:18:05;;;;;;;57.20;31.55;;;2.70;95.20;;;;;;5108625;28;20178;-84
2020/12/11 10:20:32;;;;;;;44.90;24.35;;;2.60;95.60;;;;;;5107281;28;20190;-83
2020/12/11 10:22:57;;;;;;;50.65;26.10;;;2.50;96.00;;;;;;5108522;28;20188;-83
2020/12/11 10:25:23;;;;;;;47.77;25.53;;;2.50;96.40;;;;;;5108297;28;20192;-83
2020/12/11 10:27:49;;;;;;;49.55;27.17;;;2.50;96.60;;;;;;5108636;28;20497;-83
2020/12/11 10:30:15;;;;;;;45.27;25.50;;;2.60;96.70;;;;;;5104236;28;20231;-83
2020/12/11 10:32:40;;;;;;;51.37;27.13;;;2.50;96.30;;;;;;5107787;28;20223;-83
2020/12/11 10:35:07;;;;;;;52.90;28.93;;;2.50;96.70;;;;;;5103210;28;20283;-83
2020/12/11 10:37:34;;;;;;;45.97;26.40;;;2.60;96.80;;;;;;5106431;28;20653;-83
2020/12/11 10:40:05;;;;;;;53.53;27.15;;;2.50;96.40;;;;;;5107236;28;20263;-83
2020/12/11 10:42:35;;;;;;;50.63;28.45;;;2.60;96.80;;;;;;5106858;28;20343;-83
2020/12/11 10:45:00;;;;;;;63.17;31.75;;;2.50;96.90;;;;;;5103264;28;20184;-83
2020/12/11 10:47:29;;;;;;;60.87;31.93;;;2.40;97.90;;;;;;5104516;28;20229;-83
2020/12/11 10:49:55;;;;;;;56.88;30.10;;;2.50;97.80;;;;;;5106078;28;20225;-83
2020/12/11 10:52:23;;;;;;;59.70;30.80;;;2.40;98.10;;;;;;5105302;28;20200;-83
2020/12/11 10:54:52;;;;;;;64.15;30.40;;;2.40;98.60;;;;;;5106647;28;20204;-83
2020/12/11 10:57:23;;;;;;;66.68;35.15;;;2.40;98.60;;;;;;5108788;28;20224;-83
2020/12/11 10:59:55;;;;;;;71.00;35.35;;;2.40;98.40;;;;;;5108061;28;20184;-83
2020/12/11 11:02:24;;;;;;;98.07;49.58;;;2.60;98.50;;;;;;5109083;28;20197;-82
2020/12/11 11:04:49;;;;;;;82.50;40.17;;;2.60;98.80;;;;;;5104991;28;20284;-83
2020/12/11 11:07:21;;;;;;;59.83;31.13;;;2.40;98.60;;;;;;5111283;28;20263;-82
2020/12/11 11:12:30;;;;;;;164.43;77.47;;;2.50;98.90;;;;;;5111883;28;20341;-83
2020/12/11 11:15:24;;;;;;;148.55;69.75;;;2.50;98.70;;;;;;5108523;28;20256;-82
2020/12/11 11:20:57;;;;;;;93.50;50.28;;;2.60;98.80;;;;;;5103973;28;20195;-83
2020/12/11 11:28:32;;;;;;;88.07;41.80;;;2.40;99.50;;;;;;5106256;28;20187;-82
2020/12/11 11:30:57;;;;;;;163.95;90.18;;;2.50;99.70;;;;;;5101398;28;20614;-83
2020/12/11 11:33:26;;;;;;;95.07;44.80;;;2.50;99.60;;;;;;5103407;28;20199;-82
2020/12/11 11:35:51;;;;;;;76.65;39.15;;;2.50;99.30;;;;;;5101399;28;20207;-83
2020/12/11 11:38:21;;;;;;;83.30;38.23;;;2.50;99.50;;;;;;5106814;28;20674;-83
2020/12/11 11:40:49;;;;;;;81.90;38.97;;;2.40;99.70;;;;;;5100754;28;20230;-83
2020/12/11 11:43:23;;;;;;;84.50;37.88;;;2.50;99.90;;;;;;5106217;28;20215;-83
2020/12/11 11:45:49;;;;;;;85.38;39.92;;;2.60;99.50;;;;;;5106560;28;20187;-83
2020/12/11 11:48:16;;;;;;;83.57;37.40;;;2.60;99.80;;;;;;5102861;28;20596;-83
2020/12/11 11:53:16;;;;;;;82.90;40.20;;;2.70;99.80;;;;;;5103139;28;20563;-83
2020/12/11 11:55:47;;;;;;;89.45;41.47;;;2.70;99.80;;;;;;5098830;28;20380;-84
2020/12/11 11:58:15;;;;;;;76.07;37.58;;;2.70;99.00;;;;;;5088492;28;20184;-82
2020/12/11 12:00:41;;;;;;;83.20;39.45;;;2.50;99.30;;;;;;5096995;28;20179;-83
2020/12/11 12:03:09;;;;;;;86.53;37.43;;;2.60;99.50;;;;;;5101444;28;20202;-83
2020/12/11 12:05:35;;;;;;;92.45;41.40;;;2.70;99.30;;;;;;5103968;28;20760;-83
2020/12/11 12:08:00;;;;;;;80.00;35.77;;;2.80;98.90;;;;;;5102023;28;20213;-84
2020/12/11 12:10:35;;;;;;;87.00;41.30;;;2.70;98.80;;;;;;5095091;28;20180;-85
2020/12/11 12:13:04;;;;;;;76.15;38.47;;;2.80;98.60;;;;;;5104145;28;20228;-85
2020/12/11 12:15:29;;;;;;;78.30;38.03;;;2.80;99.10;;;;;;5099379;28;20195;-85
2020/12/11 12:20:33;;;;;;;79.23;39.53;;;2.80;98.90;;;;;;5097664;28;20640;-85
2020/12/11 12:28:32;;;;;;;75.47;36.35;;;2.80;98.40;;;;;;5104613;28;20489;-85
2020/12/11 12:30:58;;;;;;;69.88;35.95;;;2.80;98.60;;;;;;5103123;28;20199;-84
2020/12/11 12:43:59;;;;;;;55.80;32.60;;;3.00;97.90;;;;;;5108306;28;20229;-84
2020/12/11 12:46:29;;;;;;;64.18;33.55;;;3.00;97.10;;;;;;5111995;28;20879;-85
2020/12/11 12:48:54;;;;;;;57.92;33.60;;;2.90;97.50;;;;;;5114014;28;20183;-85
2020/12/11 12:51:23;;;;;;;55.27;34.10;;;3.00;97.10;;;;;;5114863;28;20635;-84
2020/12/11 12:54:00;;;;;;;59.53;36.45;;;3.00;98.10;;;;;;5104019;28;20236;-84
2020/12/11 12:59:28;;;;;;;47.88;29.33;;;3.00;97.30;;;;;;5116454;28;20524;-84
2020/12/11 13:07:17;;;;;;;50.28;29.50;;;2.90;97.60;;;;;;5115922;28;20176;-86
2020/12/11 13:09:49;;;;;;;49.95;29.02;;;2.90;97.50;;;;;;5101995;28;20666;-85
2020/12/11 13:12:18;;;;;;;55.85;34.08;;;2.90;97.80;;;;;;5114076;27;20629;-85
2020/12/11 13:14:46;;;;;;;52.22;33.00;;;2.90;98.40;;;;;;5102610;28;21095;-85
2020/12/11 13:17:12;;;;;;;56.83;33.47;;;2.90;98.20;;;;;;5107688;28;20191;-86
2020/12/11 13:19:38;;;;;;;61.33;35.77;;;2.80;98.30;;;;;;5111231;28;20184;-85
2020/12/11 13:27:31;;;;;;;58.58;32.83;;;2.90;97.90;;;;;;5103658;28;20208;-86
2020/12/11 13:29:58;;;;;;;54.07;33.13;;;2.90;98.00;;;;;;5096061;28;20187;-85
2020/12/11 13:32:27;;;;;;;54.35;34.63;;;2.90;97.70;;;;;;5103190;28;20192;-86
2020/12/11 13:34:56;;;;;;;57.05;35.10;;;3.00;98.00;;;;;;5106217;28;20200;-85
2020/12/11 13:37:31;;;;;;;58.83;34.58;;;3.10;97.50;;;;;;5108316;28;20250;-84
2020/12/11 13:40:12;;;;;;;85.38;51.45;;;3.20;97.60;;;;;;5120329;27;20221;-86
2020/12/11 13:42:41;;;;;;;52.17;32.70;;;3.00;97.70;;;;;;5113745;28;20176;-85
2020/12/11 13:45:10;;;;;;;52.17;31.58;;;2.90;98.00;;;;;;5109559;28;20238;-86
2020/12/11 13:47:35;;;;;;;50.70;31.17;;;2.90;98.30;;;;;;5114610;28;20652;-87